createdAt,value
2018-04-23T00:00:47.735Z,11.70
2018-04-23T00:03:15.208Z,11.80
2018-04-23T00:05:42.702Z,11.80
2018-04-23T00:08:10.181Z,11.80
2018-04-23T00:10:38.449Z,11.80
2018-04-23T00:13:05.917Z,11.80
2018-04-23T00:15:34.183Z,11.80
2018-04-23T00:18:01.668Z,11.80
2018-04-23T00:20:29.132Z,11.80
2018-04-23T00:22:56.625Z,11.80
2018-04-23T00:25:24.136Z,11.80
2018-04-23T00:27:52.393Z,11.80
2018-04-23T00:30:19.848Z,11.80
2018-04-23T00:32:47.337Z,11.80
2018-04-23T00:35:14.812Z,11.80
2018-04-23T00:37:42.297Z,11.80
2018-04-23T00:40:09.773Z,11.90
2018-04-23T00:42:37.289Z,11.90
2018-04-23T00:45:04.764Z,11.90
2018-04-23T00:47:32.240Z,11.90
2018-04-23T00:49:59.744Z,11.90
2018-04-23T00:52:27.245Z,11.90
2018-04-23T00:54:54.740Z,11.90
2018-04-23T00:57:22.213Z,11.90
2018-04-23T00:59:50.458Z,12.00
2018-04-23T01:02:17.921Z,12.00
2018-04-23T01:04:45.408Z,12.00
2018-04-23T01:07:12.901Z,12.10
2018-04-23T01:09:40.397Z,12.10
2018-04-23T01:12:07.862Z,12.10
2018-04-23T01:14:35.389Z,12.10
2018-04-23T01:17:02.851Z,12.10
2018-04-23T01:19:30.336Z,12.10
2018-04-23T01:21:59.326Z,12.20
2018-04-23T01:24:26.812Z,12.20
2018-04-23T01:26:55.089Z,12.20
2018-04-23T01:29:23.318Z,12.20
2018-04-23T01:31:50.812Z,12.20
2018-04-23T01:34:19.040Z,12.20
2018-04-23T01:36:46.528Z,12.20
2018-04-23T01:39:14.032Z,12.20
2018-04-23T01:41:41.505Z,12.20
2018-04-23T01:44:08.972Z,12.20
2018-04-23T01:46:36.457Z,12.20
2018-04-23T01:49:03.917Z,12.20
2018-04-23T01:51:31.432Z,12.20
2018-04-23T01:53:58.930Z,12.20
2018-04-23T01:56:26.433Z,12.20
2018-04-23T01:58:54.656Z,12.30
2018-04-23T02:01:22.177Z,12.30
2018-04-23T02:03:49.665Z,12.30
2018-04-23T02:06:17.180Z,12.30
2018-04-23T02:08:44.657Z,12.40
2018-04-23T02:11:12.141Z,12.40
2018-04-23T02:13:39.620Z,12.40
2018-04-23T02:16:07.130Z,12.40
2018-04-23T02:18:35.303Z,12.40
2018-04-23T02:21:02.822Z,12.40
2018-04-23T02:23:31.783Z,12.30
2018-04-23T02:25:59.282Z,12.30
2018-04-23T02:28:26.761Z,12.30
2018-04-23T02:30:54.243Z,12.30
2018-04-23T02:33:21.730Z,12.20
2018-04-23T02:35:49.205Z,12.20
2018-04-23T02:38:16.697Z,12.30
2018-04-23T02:40:44.178Z,12.30
2018-04-23T02:43:11.653Z,12.30
2018-04-23T02:45:39.121Z,12.30
2018-04-23T02:48:06.628Z,12.20
2018-04-23T02:50:34.869Z,12.20
2018-04-23T02:53:02.363Z,12.20
2018-04-23T02:55:29.842Z,12.20
2018-04-23T02:57:57.308Z,12.30
2018-04-23T03:00:24.805Z,12.30
2018-04-23T03:02:52.329Z,12.20
2018-04-23T03:05:19.806Z,12.20
2018-04-23T03:07:47.281Z,12.20
2018-04-23T03:10:14.757Z,12.20
2018-04-23T03:12:43.005Z,12.20
2018-04-23T03:15:10.503Z,12.20
2018-04-23T03:17:38.731Z,12.20
2018-04-23T03:20:06.225Z,12.10
2018-04-23T03:22:33.693Z,12.10
2018-04-23T03:25:01.946Z,12.10
2018-04-23T03:27:29.440Z,12.10
2018-04-23T03:29:56.930Z,12.00
2018-04-23T03:32:24.416Z,12.00
2018-04-23T03:34:51.905Z,11.90
2018-04-23T03:37:20.144Z,11.80
2018-04-23T03:39:47.633Z,11.80
2018-04-23T03:42:16.445Z,11.70
2018-04-23T03:44:43.940Z,11.70
2018-04-23T03:47:11.423Z,11.70
2018-04-23T03:49:38.924Z,11.60
2018-04-23T03:52:07.170Z,11.60
2018-04-23T03:54:34.676Z,11.50
2018-04-23T03:57:02.148Z,11.50
2018-04-23T03:59:29.620Z,11.50
2018-04-23T04:01:57.098Z,11.50
2018-04-23T04:04:24.575Z,11.40
2018-04-23T04:06:52.824Z,11.40
2018-04-23T04:09:20.299Z,11.40
2018-04-23T04:11:47.783Z,11.30
2018-04-23T04:14:27.311Z,11.30
2018-04-23T04:16:55.560Z,11.30
2018-04-23T04:19:23.042Z,11.30
2018-04-23T04:21:51.288Z,11.30
2018-04-23T04:24:18.748Z,11.30
2018-04-23T04:26:46.249Z,11.30
2018-04-23T04:29:14.618Z,11.30
2018-04-23T04:31:42.876Z,11.30
2018-04-23T04:34:10.355Z,11.30
2018-04-23T04:36:38.621Z,11.40
2018-04-23T04:39:06.844Z,11.30
2018-04-23T04:41:34.305Z,11.30
2018-04-23T04:44:01.785Z,11.30
2018-04-23T04:46:29.281Z,11.30
2018-04-23T04:48:57.534Z,11.20
2018-04-23T04:51:25.034Z,11.20
2018-04-23T04:53:52.513Z,11.20
2018-04-23T04:56:20.014Z,11.20
2018-04-23T04:58:47.492Z,11.20
2018-04-23T05:01:15.733Z,11.30
2018-04-23T05:03:44.009Z,11.20
2018-04-23T05:06:11.506Z,11.20
2018-04-23T05:08:39.792Z,11.20
2018-04-23T05:11:07.276Z,11.20
2018-04-23T05:13:34.732Z,11.30
2018-04-23T05:16:02.252Z,11.30
2018-04-23T05:18:30.525Z,11.40
2018-04-23T05:20:58.786Z,11.40
2018-04-23T05:23:26.249Z,11.40
2018-04-23T05:25:53.760Z,11.50
2018-04-23T05:28:21.274Z,11.50
2018-04-23T05:30:48.730Z,11.60
2018-04-23T05:33:16.992Z,11.80
2018-04-23T05:35:45.268Z,11.80
2018-04-23T05:38:12.765Z,11.80
2018-04-23T05:40:41.019Z,12.10
2018-04-23T05:43:09.316Z,12.10
2018-04-23T05:45:36.781Z,12.10
2018-04-23T05:48:05.009Z,12.40
2018-04-23T05:50:32.513Z,12.40
2018-04-23T05:53:00.743Z,12.50
2018-04-23T05:55:28.239Z,12.50
2018-04-23T05:57:55.754Z,12.60
2018-04-23T06:00:23.253Z,12.80
2018-04-23T06:02:51.521Z,12.90
2018-04-23T06:05:18.984Z,13.00
2018-04-23T06:07:47.257Z,13.00
2018-04-23T06:10:15.533Z,13.10
2018-04-23T06:12:43.036Z,13.10
2018-04-23T06:15:10.529Z,13.20
2018-04-23T06:17:38.001Z,13.30
2018-04-23T06:20:05.510Z,13.40
2018-04-23T06:22:32.990Z,13.60
2018-04-23T06:25:00.476Z,13.60
2018-04-23T06:27:28.748Z,13.80
2018-04-23T06:29:56.235Z,13.80
2018-04-23T06:32:23.747Z,13.90
2018-04-23T06:34:51.224Z,14.00
2018-04-23T06:37:19.509Z,14.50
2018-04-23T06:39:47.768Z,14.60
2018-04-23T06:42:15.533Z,14.60
2018-04-23T06:44:43.048Z,14.80
2018-04-23T06:47:10.528Z,15.00
2018-04-23T06:49:38.022Z,15.20
2018-04-23T06:52:06.278Z,15.70
2018-04-23T06:54:33.789Z,15.60
2018-04-23T06:57:01.259Z,15.90
2018-04-23T06:59:28.776Z,16.20
2018-04-23T07:01:56.247Z,16.30
2018-04-23T07:04:24.515Z,16.70
2018-04-23T07:06:51.981Z,16.70
2018-04-23T07:09:20.243Z,17.10
2018-04-23T07:11:47.713Z,17.10
2018-04-23T07:14:15.215Z,17.20
2018-04-23T07:16:42.752Z,17.20
2018-04-23T07:19:11.017Z,17.40
2018-04-23T07:21:44.472Z,17.50
2018-04-23T07:24:12.132Z,17.50
2018-04-23T07:26:39.630Z,17.70
2018-04-23T07:29:11.593Z,17.90
2018-04-23T07:31:39.237Z,18.10
2018-04-23T07:34:06.741Z,18.30
2018-04-23T07:36:34.225Z,18.40
2018-04-23T07:39:01.704Z,18.70
2018-04-23T07:41:29.186Z,19.00
2018-04-23T07:43:56.653Z,19.20
2018-04-23T07:46:24.976Z,19.50
2018-04-23T07:48:52.500Z,19.50
2018-04-23T07:51:20.010Z,19.60
2018-04-23T07:53:47.502Z,19.60
2018-04-23T07:56:15.000Z,19.70
2018-04-23T07:58:43.349Z,19.80
2018-04-23T08:01:11.608Z,19.80
2018-04-23T08:03:39.866Z,19.80
2018-04-23T08:06:07.354Z,19.70
2018-04-23T08:08:35.644Z,20.10
2018-04-23T08:11:03.884Z,20.20
2018-04-23T08:13:31.431Z,20.20
2018-04-23T08:15:58.920Z,20.40
2018-04-23T08:18:26.412Z,20.40
2018-04-23T08:20:53.913Z,20.40
2018-04-23T08:23:21.428Z,20.50
2018-04-23T08:25:48.941Z,20.50
2018-04-23T08:28:16.412Z,20.50
2018-04-23T08:30:43.982Z,20.50
2018-04-23T08:33:12.272Z,20.40
2018-04-23T08:35:40.517Z,20.30
2018-04-23T08:38:08.006Z,20.30
2018-04-23T08:40:36.290Z,20.70
2018-04-23T08:43:04.565Z,21.10
2018-04-23T08:45:32.828Z,21.20
2018-04-23T08:48:01.183Z,21.40
2018-04-23T08:50:28.758Z,21.30
2018-04-23T08:52:56.218Z,21.60
2018-04-23T08:55:23.704Z,21.90
2018-04-23T08:57:51.205Z,22.20
2018-04-23T09:00:18.701Z,22.20
2018-04-23T09:02:46.953Z,22.40
2018-04-23T09:05:14.437Z,22.40
2018-04-23T09:07:42.739Z,22.40
2018-04-23T09:10:14.312Z,22.40
2018-04-23T09:12:41.841Z,22.40
2018-04-23T09:15:10.097Z,22.40
2018-04-23T09:17:37.623Z,22.40
2018-04-23T09:20:05.115Z,22.30
2018-04-23T09:22:32.610Z,22.40
2018-04-23T09:25:00.121Z,22.70
2018-04-23T09:27:27.613Z,22.50
2018-04-23T09:29:55.108Z,22.60
2018-04-23T09:32:22.612Z,22.20
2018-04-23T09:34:50.900Z,22.10
2018-04-23T09:37:19.130Z,22.10
2018-04-23T09:39:46.766Z,22.10
2018-04-23T09:42:14.252Z,22.20
2018-04-23T09:44:41.793Z,22.30
2018-04-23T09:47:10.019Z,21.90
2018-04-23T09:49:37.537Z,21.80
2018-04-23T09:52:05.066Z,21.40
2018-04-23T09:54:32.556Z,21.00
2018-04-23T09:57:00.013Z,20.60
2018-04-23T09:59:27.554Z,20.60
2018-04-23T10:01:55.049Z,20.60
2018-04-23T10:04:23.500Z,20.90
2018-04-23T10:06:51.004Z,20.90
2018-04-23T10:09:18.548Z,20.90
2018-04-23T10:11:46.053Z,20.80
2018-04-23T10:14:14.319Z,20.60
2018-04-23T10:16:42.532Z,20.70
2018-04-23T10:19:10.189Z,20.70
2018-04-23T10:21:37.711Z,20.70
2018-04-23T10:24:07.681Z,20.80
2018-04-23T10:26:35.257Z,20.80
2018-04-23T10:29:02.778Z,20.90
2018-04-23T10:31:32.801Z,20.70
2018-04-23T10:34:00.531Z,20.60
2018-04-23T10:36:28.802Z,21.00
2018-04-23T10:38:56.338Z,21.00
2018-04-23T10:41:23.820Z,21.40
2018-04-23T10:43:51.320Z,21.70
2018-04-23T10:46:18.794Z,22.10
2018-04-23T10:48:46.285Z,22.10
2018-04-23T10:51:13.823Z,22.30
2018-04-23T10:53:41.292Z,22.30
2018-04-23T10:56:08.807Z,21.90
2018-04-23T10:58:36.362Z,21.70
2018-04-23T11:01:03.906Z,21.90
2018-04-23T11:03:32.208Z,22.00
2018-04-23T11:05:59.729Z,22.00
2018-04-23T11:08:28.726Z,21.60
2018-04-23T11:10:56.982Z,21.60
2018-04-23T11:13:24.472Z,21.60
2018-04-23T11:15:52.793Z,21.90
2018-04-23T11:18:20.244Z,21.90
2018-04-23T11:20:47.761Z,21.80
2018-04-23T11:23:16.013Z,21.90
2018-04-23T11:25:43.532Z,21.90
2018-04-23T11:28:11.788Z,22.00
2018-04-23T11:30:40.100Z,21.40
2018-04-23T11:33:07.644Z,21.40
2018-04-23T11:35:35.183Z,21.20
2018-04-23T11:38:03.465Z,21.20
2018-04-23T11:40:31.716Z,20.80
2018-04-23T11:42:59.974Z,20.70
2018-04-23T11:45:27.472Z,20.70
2018-04-23T11:47:55.700Z,20.70
2018-04-23T11:50:23.983Z,20.60
2018-04-23T11:52:51.480Z,20.60
2018-04-23T11:55:19.813Z,20.90
2018-04-23T11:57:47.328Z,20.90
2018-04-23T12:00:15.583Z,21.30
2018-04-23T12:02:43.838Z,21.60
2018-04-23T12:05:11.300Z,21.60
2018-04-23T12:07:38.824Z,22.00
2018-04-23T12:10:06.313Z,21.90
2018-04-23T12:12:33.809Z,21.20
2018-04-23T12:15:02.074Z,21.00
2018-04-23T12:17:30.336Z,20.70
2018-04-23T12:19:57.858Z,20.70
2018-04-23T12:22:25.372Z,20.80
2018-04-23T12:24:53.609Z,20.20
2018-04-23T12:27:21.065Z,20.20
2018-04-23T12:29:48.588Z,20.00
2018-04-23T12:32:16.080Z,19.90
2018-04-23T12:34:43.632Z,19.80
2018-04-23T12:37:11.117Z,19.60
2018-04-23T12:39:38.630Z,19.30
2018-04-23T12:42:06.142Z,19.20
2018-04-23T12:44:33.647Z,19.20
2018-04-23T12:47:01.129Z,19.10
2018-04-23T12:49:28.677Z,19.10
2018-04-23T12:51:56.210Z,19.20
2018-04-23T12:54:23.805Z,19.40
2018-04-23T12:56:51.302Z,19.50
2018-04-23T12:59:18.765Z,19.20
2018-04-23T13:01:46.270Z,19.20
2018-04-23T13:04:13.730Z,19.20
2018-04-23T13:06:41.221Z,19.10
2018-04-23T13:09:08.734Z,19.00
2018-04-23T13:11:36.225Z,19.00
2018-04-23T13:14:03.719Z,19.10
2018-04-23T13:16:31.205Z,18.90
2018-04-23T13:18:58.697Z,18.70
2018-04-23T13:21:26.223Z,18.60
2018-04-23T13:23:53.698Z,18.40
2018-04-23T13:26:21.221Z,18.10
2018-04-23T13:28:49.448Z,18.20
2018-04-23T13:31:16.948Z,18.10
2018-04-23T13:33:44.410Z,17.80
2018-04-23T13:36:13.011Z,17.80
2018-04-23T13:38:41.261Z,17.80
2018-04-23T13:41:08.743Z,17.80
2018-04-23T13:43:37.019Z,17.80
2018-04-23T13:46:05.287Z,17.90
2018-04-23T13:48:33.514Z,17.80
2018-04-23T13:51:01.036Z,17.80
2018-04-23T13:53:29.293Z,17.60
2018-04-23T13:55:57.563Z,17.50
2018-04-23T13:58:25.058Z,17.50
2018-04-23T14:00:52.541Z,17.40
2018-04-23T14:03:20.031Z,17.20
2018-04-23T14:05:47.513Z,17.20
2018-04-23T14:08:16.492Z,16.90
2018-04-23T14:10:43.963Z,16.90
2018-04-23T14:13:12.238Z,16.80
2018-04-23T14:15:40.463Z,16.80
2018-04-23T14:18:07.959Z,16.80
2018-04-23T14:20:35.436Z,16.80
2018-04-23T14:23:03.691Z,16.70
2018-04-23T14:25:31.190Z,16.70
2018-04-23T14:27:58.656Z,16.60
2018-04-23T14:30:26.164Z,16.60
2018-04-23T14:32:53.622Z,16.60
2018-04-23T14:35:21.141Z,16.50
2018-04-23T14:37:48.624Z,16.50
2018-04-23T14:40:16.109Z,16.60
2018-04-23T14:42:43.592Z,16.70
2018-04-23T14:45:11.079Z,16.90
2018-04-23T14:47:38.562Z,17.10
2018-04-23T14:50:06.070Z,17.20
2018-04-23T14:52:33.548Z,17.40
2018-04-23T14:55:01.055Z,17.60
2018-04-23T14:57:28.522Z,17.90
2018-04-23T14:59:56.825Z,18.20
2018-04-23T15:02:24.312Z,18.20
2018-04-23T15:04:51.793Z,18.30
2018-04-23T15:07:19.327Z,18.50
2018-04-23T15:09:46.800Z,18.50
2018-04-23T15:12:14.332Z,18.50
2018-04-23T15:14:41.805Z,18.70
2018-04-23T15:17:09.336Z,18.70
2018-04-23T15:19:36.806Z,18.60
2018-04-23T15:22:04.325Z,18.40
2018-04-23T15:24:32.573Z,18.40
2018-04-23T15:27:00.110Z,18.30
2018-04-23T15:29:27.585Z,18.40
2018-04-23T15:31:55.066Z,18.30
2018-04-23T15:34:22.564Z,18.10
2018-04-23T15:36:50.038Z,18.00
2018-04-23T15:39:17.534Z,18.00
2018-04-23T15:41:45.031Z,18.00
2018-04-23T15:44:13.314Z,18.00
2018-04-23T15:46:40.821Z,18.00
2018-04-23T15:49:08.308Z,18.10
2018-04-23T15:51:36.546Z,18.30
2018-04-23T15:54:04.040Z,18.30
2018-04-23T15:56:32.288Z,18.60
2018-04-23T15:58:59.778Z,18.60
2018-04-23T16:01:28.070Z,18.40
2018-04-23T16:03:56.366Z,18.30
2018-04-23T16:06:23.845Z,18.20
2018-04-23T16:08:51.327Z,18.10
2018-04-23T16:11:18.809Z,18.10
2018-04-23T16:13:47.049Z,18.00
2018-04-23T16:16:14.558Z,18.00
2018-04-23T16:18:42.799Z,17.90
2018-04-23T16:21:10.301Z,17.90
2018-04-23T16:23:37.794Z,17.90
2018-04-23T16:26:05.285Z,17.90
2018-04-23T16:28:32.788Z,17.80
2018-04-23T16:31:00.308Z,17.80
2018-04-23T16:33:27.772Z,17.70
2018-04-23T16:35:55.277Z,17.60
2018-04-23T16:38:22.773Z,17.50
2018-04-23T16:40:50.291Z,17.40
2018-04-23T16:43:17.748Z,17.30
2018-04-23T16:45:45.236Z,17.30
2018-04-23T16:48:12.697Z,17.20
2018-04-23T16:50:40.191Z,17.10
2018-04-23T16:53:08.472Z,17.00
2018-04-23T16:55:36.740Z,16.90
2018-04-23T16:58:05.011Z,16.90
2018-04-23T17:00:32.522Z,16.90
2018-04-23T17:03:00.005Z,16.70
2018-04-23T17:05:27.497Z,16.60
2018-04-23T17:07:55.738Z,16.60
2018-04-23T17:10:23.204Z,16.60
2018-04-23T17:12:51.588Z,16.60
2018-04-23T17:15:20.600Z,16.60
2018-04-23T17:17:48.846Z,16.60
2018-04-23T17:20:16.363Z,16.60
2018-04-23T17:22:43.813Z,16.60
2018-04-23T17:25:11.324Z,16.50
2018-04-23T17:27:38.839Z,16.50
2018-04-23T17:30:07.085Z,16.50
2018-04-23T17:32:35.356Z,16.50
2018-04-23T17:35:02.853Z,16.50
2018-04-23T17:37:30.370Z,16.50
2018-04-23T17:39:59.369Z,16.20
2018-04-23T17:42:27.637Z,16.10
2018-04-23T17:44:55.193Z,16.10
2018-04-23T17:47:23.461Z,15.90
2018-04-23T17:49:50.925Z,15.90
2018-04-23T17:52:18.426Z,15.90
2018-04-23T17:54:46.680Z,15.70
2018-04-23T17:57:14.157Z,15.70
2018-04-23T17:59:42.388Z,15.60
2018-04-23T18:02:09.939Z,15.60
2018-04-23T18:04:37.410Z,15.60
2018-04-23T18:07:04.920Z,15.60
2018-04-23T18:09:33.183Z,15.50
2018-04-23T18:12:01.433Z,15.30
2018-04-23T18:14:28.920Z,15.30
2018-04-23T18:16:57.205Z,15.10
2018-04-23T18:19:25.490Z,15.10
2018-04-23T18:21:53.710Z,15.00
2018-04-23T18:24:21.416Z,15.00
2018-04-23T18:26:49.658Z,14.90
2018-04-23T18:29:17.164Z,14.90
2018-04-23T18:31:44.620Z,14.80
2018-04-23T18:34:12.124Z,14.80
2018-04-23T18:36:39.644Z,14.80
2018-04-23T18:39:07.184Z,14.80
2018-04-23T18:41:35.444Z,14.70
2018-04-23T18:44:02.944Z,14.70
2018-04-23T18:46:30.403Z,14.60
2018-04-23T18:48:57.914Z,14.60
2018-04-23T18:51:25.424Z,14.60
2018-04-23T18:53:53.678Z,14.60
2018-04-23T18:56:21.196Z,14.60
2018-04-23T18:58:48.673Z,14.60
2018-04-23T19:01:17.008Z,14.60
2018-04-23T19:03:45.266Z,14.60
2018-04-23T19:06:12.780Z,14.50
2018-04-23T19:08:40.253Z,14.50
2018-04-23T19:11:08.544Z,14.40
2018-04-23T19:13:36.809Z,14.40
2018-04-23T19:16:05.121Z,14.40
2018-04-23T19:18:32.603Z,14.30
2018-04-23T19:21:00.059Z,14.40
2018-04-23T19:23:27.566Z,14.30
2018-04-23T19:25:55.849Z,14.20
2018-04-23T19:28:24.097Z,14.10
2018-04-23T19:30:51.574Z,14.20
2018-04-23T19:33:19.852Z,14.10
2018-04-23T19:35:48.101Z,14.10
2018-04-23T19:38:15.609Z,14.10
2018-04-23T19:40:43.121Z,14.10
2018-04-23T19:43:10.667Z,14.10
2018-04-23T19:45:38.149Z,14.10
2018-04-23T19:48:05.651Z,14.10
2018-04-23T19:50:33.229Z,14.10
2018-04-23T19:53:00.726Z,14.10
2018-04-23T19:55:28.208Z,14.00
2018-04-23T19:57:56.495Z,14.00
2018-04-23T20:00:24.751Z,14.00
2018-04-23T20:02:53.048Z,14.00
2018-04-23T20:05:21.290Z,14.00
2018-04-23T20:07:48.769Z,14.00
2018-04-23T20:10:17.033Z,14.00
2018-04-23T20:12:45.274Z,14.00
2018-04-23T20:15:12.812Z,14.00
2018-04-23T20:17:40.340Z,14.00
2018-04-23T20:20:08.613Z,14.00
2018-04-23T20:22:36.931Z,13.90
2018-04-23T20:25:04.473Z,13.90
2018-04-23T20:27:31.935Z,13.90
2018-04-23T20:29:59.417Z,13.90
2018-04-23T20:32:26.926Z,13.90
2018-04-23T20:34:55.220Z,13.90
2018-04-23T20:37:23.454Z,13.90
2018-04-23T20:39:51.696Z,13.90
2018-04-23T20:42:19.244Z,13.80
2018-04-23T20:44:46.738Z,13.90
2018-04-23T20:47:14.289Z,13.90
2018-04-23T20:49:41.763Z,13.90
2018-04-23T20:52:09.284Z,13.90
2018-04-23T20:54:36.780Z,13.80
2018-04-23T20:57:04.285Z,13.80
2018-04-23T20:59:31.785Z,13.80
2018-04-23T21:01:59.279Z,13.80
2018-04-23T21:04:26.760Z,13.80
2018-04-23T21:06:54.276Z,13.80
2018-04-23T21:09:21.753Z,13.80
2018-04-23T21:11:50.039Z,13.80
2018-04-23T21:14:17.524Z,13.70
2018-04-23T21:16:45.003Z,13.80
2018-04-23T21:19:12.463Z,13.80
2018-04-23T21:21:39.948Z,13.80
2018-04-23T21:24:07.426Z,13.80
2018-04-23T21:26:36.416Z,13.80
2018-04-23T21:29:03.983Z,13.80
2018-04-23T21:31:32.216Z,13.80
2018-04-23T21:33:59.701Z,13.80
2018-04-23T21:36:27.190Z,13.80
2018-04-23T21:38:55.454Z,13.80
2018-04-23T21:41:23.711Z,13.80
2018-04-23T21:43:51.169Z,13.80
2018-04-23T21:46:18.656Z,13.80
2018-04-23T21:48:46.904Z,13.80
2018-04-23T21:51:14.409Z,13.80
2018-04-23T21:53:41.884Z,13.80
2018-04-23T21:56:09.414Z,13.80
2018-04-23T21:58:37.653Z,13.80
2018-04-23T22:01:05.140Z,13.80
2018-04-23T22:03:33.409Z,13.80
2018-04-23T22:06:01.652Z,13.80
2018-04-23T22:08:29.183Z,13.70
2018-04-23T22:10:56.648Z,13.80
2018-04-23T22:13:24.156Z,13.80
2018-04-23T22:15:52.381Z,13.70
2018-04-23T22:18:19.905Z,13.70
2018-04-23T22:20:48.156Z,13.70
2018-04-23T22:23:15.648Z,13.70
2018-04-23T22:25:43.898Z,13.70
2018-04-23T22:28:11.435Z,13.70
2018-04-23T22:30:38.897Z,13.70
2018-04-23T22:33:06.429Z,13.60
2018-04-23T22:35:33.893Z,13.60
2018-04-23T22:38:01.376Z,13.60
2018-04-23T22:40:28.881Z,13.50
2018-04-23T22:42:56.348Z,13.60
2018-04-23T22:45:23.860Z,13.60
2018-04-23T22:47:51.341Z,13.50
2018-04-23T22:50:19.751Z,13.50
2018-04-23T22:52:47.221Z,13.50
2018-04-23T22:55:14.730Z,13.40
2018-04-23T22:57:42.184Z,13.40
2018-04-23T23:00:10.459Z,13.30
2018-04-23T23:02:37.921Z,13.20
2018-04-23T23:05:05.417Z,13.20
2018-04-23T23:07:32.889Z,13.20
2018-04-23T23:10:00.404Z,13.20
2018-04-23T23:12:28.633Z,13.10
2018-04-23T23:14:56.162Z,13.10
2018-04-23T23:17:24.395Z,13.10
2018-04-23T23:19:51.856Z,13.10
2018-04-23T23:22:19.384Z,13.00
2018-04-23T23:24:46.862Z,13.00
2018-04-23T23:27:14.360Z,13.00
2018-04-23T23:29:42.600Z,13.00
2018-04-23T23:32:10.093Z,13.00
2018-04-23T23:34:38.342Z,13.00
2018-04-23T23:37:05.853Z,13.00
2018-04-23T23:39:33.305Z,13.00
2018-04-23T23:42:00.804Z,13.00
2018-04-23T23:44:28.283Z,13.00
2018-04-23T23:46:55.765Z,13.00
2018-04-23T23:49:24.020Z,12.90
2018-04-23T23:51:51.508Z,12.80
2018-04-23T23:54:19.758Z,12.70
2018-04-23T23:56:47.268Z,12.70
2018-04-23T23:59:14.756Z,12.70
